24h
KLIENDITUGI:
Saartelennuliinid: +372 58856336 (24/7)
Estairi piletikassa lennujaamas:
+372 6058887; +372 55603687

05.04.2018 hommikune Transaviabaltika lend KTB680 kell 08:35 (kohalik aeg) Tallinn - Kuressaare väljalend ja KTB681 kell 09:30 Kuressaare – Tallinn väljalend hilineb. KTB680 TLL-URE uus väljalennu aeg on kell 11:05 (kohalik aeg) ja KTB681 URE – TLL uus väljalennu aeg on kell 12:00 (kohalik aeg). Lennu hilinemise põhjustab udu Kuressaare ja Tallinna lennuväljal.

EETN Tallinna lennuväli

FTEO31 EETN 050500 TAF EETN 050530Z 0506/0606 VRB02KT 0500 FG VV002

TEMPO 0506/0508 0150 FG VV001 BECMG 0508/0510 2000 BR BKN003 BECMG 0510/0512 15010KT 6000 BKN004 SCT012CB TEMPO 0513/0518 2000 SHRA BR TEMPO 0520/0606 1200 BCFG BR BKN002 BECMG 0521/0523 22010KT=

METAR EETN 050550Z 13005KT 0150 R08/0350N FG VV001 04/03 Q1005 R08/290195 NOSIG=
Kuupäev: 
05/04/2018